San Francisco, CA

8:45 PM PDT on August 04, 2015 (GMT -0700)
Collingwood Hill/Noe Valley-Castro | | Change Station
CLOSE
Current Station
Personal Weather Station
Location: San Francisco, CA
Elevation: 348 ft
Nearby Weather Stations

Elev 348 ft 37.76 °N, 122.44 °W | Updated 16 seconds ago

Mostly Cloudy
Mostly Cloudy
63.5 °F
Feels Like 63.5 °F
N
4.0
Wind Variable Wind from West
Gusts 9.0 mph

Today
High -- | Low -- °F
--% Chance of Precip.
Yesterday
High -- | Low -- °F
Precip. -- in
6:15 AM 8:15 PM
Waning Gibbous, 71% visible
Pressure 29.99 in
Visibility 10.0 miles
Clouds Few 1300 ft
Mostly Cloudy 20000 ft
Dew Point 54 °F
Humidity 72%
Rainfall 0.00 in
Snow Depth Not available.
UV 0 out of 12
Pollen 4.90 out of 12
Air Quality Not available.
Flu Activity Not available.
METAR KSFO 050256Z 27010KT 10SM FEW013 BKN200 20/13 A2999 RMK AO2 SLP155 T02000128 55000

More Conditions Fewer Conditions

Pressure 29.99 in
Visibility 10.0 miles
Clouds Few 1300 ft
Mostly Cloudy 20000 ft
Dew Point 54 °F
Humidity 72%
Rainfall 0.00 in
Snow Depth Not available.
UV 0 out of 12
Pollen 4.90 out of 12
Air Quality Not available.
Flu Activity Not available.
METAR KSFO 050256Z 27010KT 10SM FEW013 BKN200 20/13 A2999 RMK AO2 SLP155 T02000128 55000

More Conditions Fewer Conditions

10-Day Weather Forecast

×

Almanac

Astronomy

Aug. 04, 2015 Rise Set
Actual Time
Civil Twilight
Nautical Twilight
Astronomical Twilight
Moon
Length of Visible Light
Length of Day
Tomorrow will be .
, % of the Moon is Illuminated

Today's Extremes

State Highs State Lows

Community

WunderPhotos

Upload Photos

1,844,089 photos uploaded!

WunderBlogs® & News

Nearby

Air Quality

  Air Quality AQ Index Pollutant
Not available.

Snow Depth

Station Depth Elevation

Earthquake Activity

City Distance Mag. Time & Date
Minimum magnitude displayed is 2.5.

Coastal Water Temperatures

Place Temperature

Stations

Nearby Weather Stations

Station Location Temp. Windchill Dew Point Humidity Wind Precip. Elev Updated Type